sensor_id;sensor_type;location;lat;lon;timestamp;temperature;humidity
22771;DHT22;11552;50.786;4.332;2022-11-18T00:01:21;10.50;99.90
22771;DHT22;11552;50.786;4.332;2022-11-18T00:08:38;10.50;99.90
22771;DHT22;11552;50.786;4.332;2022-11-18T00:11:08;10.50;99.90
22771;DHT22;11552;50.786;4.332;2022-11-18T00:13:33;10.60;99.90
22771;DHT22;11552;50.786;4.332;2022-11-18T00:18:55;10.60;99.90
22771;DHT22;11552;50.786;4.332;2022-11-18T00:21:20;10.50;99.90
22771;DHT22;11552;50.786;4.332;2022-11-18T00:23:47;10.50;99.90
22771;DHT22;11552;50.786;4.332;2022-11-18T00:26:13;10.50;99.90
22771;DHT22;11552;50.786;4.332;2022-11-18T00:28:39;10.50;99.90
22771;DHT22;11552;50.786;4.332;2022-11-18T00:31:05;10.50;99.90
22771;DHT22;11552;50.786;4.332;2022-11-18T00:33:31;10.50;99.90
22771;DHT22;11552;50.786;4.332;2022-11-18T00:35:57;10.50;99.90
22771;DHT22;11552;50.786;4.332;2022-11-18T00:38:23;10.60;99.90
22771;DHT22;11552;50.786;4.332;2022-11-18T00:40:48;10.60;99.90
22771;DHT22;11552;50.786;4.332;2022-11-18T00:43:14;10.50;99.90
22771;DHT22;11552;50.786;4.332;2022-11-18T00:45:41;10.50;99.90
22771;DHT22;11552;50.786;4.332;2022-11-18T00:48:06;10.60;99.90
22771;DHT22;11552;50.786;4.332;2022-11-18T00:50:32;10.60;99.90
22771;DHT22;11552;50.786;4.332;2022-11-18T00:52:57;10.60;99.90
22771;DHT22;11552;50.786;4.332;2022-11-18T00:57:15;10.60;99.90
22771;DHT22;11552;50.786;4.332;2022-11-18T00:59:40;10.60;99.90
22771;DHT22;11552;50.786;4.332;2022-11-18T01:02:06;10.70;99.90
22771;DHT22;11552;50.786;4.332;2022-11-18T01:04:31;10.60;99.90
22771;DHT22;11552;50.786;4.332;2022-11-18T01:06:57;10.70;99.90
22771;DHT22;11552;50.786;4.332;2022-11-18T01:09:22;10.70;99.90
22771;DHT22;11552;50.786;4.332;2022-11-18T01:11:48;10.60;99.90
22771;DHT22;11552;50.786;4.332;2022-11-18T01:16:36;10.60;99.90
22771;DHT22;11552;50.786;4.332;2022-11-18T01:19:01;10.70;99.90
22771;DHT22;11552;50.786;4.332;2022-11-18T01:21:27;10.50;99.90
22771;DHT22;11552;50.786;4.332;2022-11-18T01:25:05;10.30;99.90
22771;DHT22;11552;50.786;4.332;2022-11-18T01:27:31;10.20;99.90
22771;DHT22;11552;50.786;4.332;2022-11-18T01:30:42;10.10;99.90
22771;DHT22;11552;50.786;4.332;2022-11-18T01:33:07;10.10;99.90
22771;DHT22;11552;50.786;4.332;2022-11-18T01:35:34;10.10;99.90
22771;DHT22;11552;50.786;4.332;2022-11-18T01:38:00;10.10;99.90
22771;DHT22;11552;50.786;4.332;2022-11-18T01:42:49;10.10;99.90
22771;DHT22;11552;50.786;4.332;2022-11-18T01:48:32;10.10;99.90
22771;DHT22;11552;50.786;4.332;2022-11-18T01:50:31;10.00;99.90
22771;DHT22;11552;50.786;4.332;2022-11-18T01:53:01;10.10;99.90
22771;DHT22;11552;50.786;4.332;2022-11-18T02:00:56;10.00;99.90
22771;DHT22;11552;50.786;4.332;2022-11-18T02:03:22;9.90;99.90
22771;DHT22;11552;50.786;4.332;2022-11-18T02:08:27;9.90;99.90
22771;DHT22;11552;50.786;4.332;2022-11-18T02:10:53;9.90;99.90
22771;DHT22;11552;50.786;4.332;2022-11-18T02:13:19;9.90;99.90
22771;DHT22;11552;50.786;4.332;2022-11-18T02:18:27;9.80;99.90
22771;DHT22;11552;50.786;4.332;2022-11-18T02:20:55;9.80;99.90
22771;DHT22;11552;50.786;4.332;2022-11-18T02:23:35;9.80;99.90
22771;DHT22;11552;50.786;4.332;2022-11-18T02:29:02;9.90;99.90
22771;DHT22;11552;50.786;4.332;2022-11-18T02:31:34;9.80;99.90
22771;DHT22;11552;50.786;4.332;2022-11-18T02:39:57;9.70;99.90
22771;DHT22;11552;50.786;4.332;2022-11-18T02:42:25;9.60;99.90
22771;DHT22;11552;50.786;4.332;2022-11-18T02:44:53;9.60;99.90
22771;DHT22;11552;50.786;4.332;2022-11-18T02:49:41;9.40;99.90
22771;DHT22;11552;50.786;4.332;2022-11-18T02:52:07;9.40;99.90
22771;DHT22;11552;50.786;4.332;2022-11-18T02:54:35;9.50;99.90
22771;DHT22;11552;50.786;4.332;2022-11-18T02:57:01;9.40;99.90
22771;DHT22;11552;50.786;4.332;2022-11-18T02:59:27;9.40;99.90
22771;DHT22;11552;50.786;4.332;2022-11-18T03:01:53;9.30;99.90
22771;DHT22;11552;50.786;4.332;2022-11-18T03:04:57;9.40;99.90
22771;DHT22;11552;50.786;4.332;2022-11-18T03:07:29;9.30;99.90
22771;DHT22;11552;50.786;4.332;2022-11-18T03:09:56;9.30;99.90
22771;DHT22;11552;50.786;4.332;2022-11-18T03:12:41;9.30;99.90
22771;DHT22;11552;50.786;4.332;2022-11-18T03:15:12;9.30;99.90
22771;DHT22;11552;50.786;4.332;2022-11-18T03:22:46;9.20;99.90
22771;DHT22;11552;50.786;4.332;2022-11-18T03:25:15;9.10;99.90
22771;DHT22;11552;50.786;4.332;2022-11-18T03:32:26;9.10;99.90
22771;DHT22;11552;50.786;4.332;2022-11-18T03:34:54;9.20;99.90
22771;DHT22;11552;50.786;4.332;2022-11-18T03:37:22;9.20;99.90
22771;DHT22;11552;50.786;4.332;2022-11-18T03:39:51;9.30;99.90
22771;DHT22;11552;50.786;4.332;2022-11-18T03:42:18;9.30;99.90
22771;DHT22;11552;50.786;4.332;2022-11-18T03:44:49;9.30;99.90
22771;DHT22;11552;50.786;4.332;2022-11-18T03:47:18;9.30;99.90
22771;DHT22;11552;50.786;4.332;2022-11-18T03:53:14;9.30;99.90
22771;DHT22;11552;50.786;4.332;2022-11-18T03:55:42;9.30;99.90
22771;DHT22;11552;50.786;4.332;2022-11-18T03:58:11;9.30;99.90
22771;DHT22;11552;50.786;4.332;2022-11-18T04:00:40;9.20;99.90
22771;DHT22;11552;50.786;4.332;2022-11-18T04:03:07;9.10;99.90
22771;DHT22;11552;50.786;4.332;2022-11-18T04:05:35;9.00;99.90
22771;DHT22;11552;50.786;4.332;2022-11-18T04:08:02;9.00;99.90
22771;DHT22;11552;50.786;4.332;2022-11-18T04:10:39;9.00;99.90
22771;DHT22;11552;50.786;4.332;2022-11-18T04:13:07;8.90;99.90
22771;DHT22;11552;50.786;4.332;2022-11-18T04:15:52;8.90;99.90
22771;DHT22;11552;50.786;4.332;2022-11-18T04:19:20;8.90;99.90
22771;DHT22;11552;50.786;4.332;2022-11-18T04:21:46;9.00;99.90
22771;DHT22;11552;50.786;4.332;2022-11-18T04:24:12;9.00;99.90
22771;DHT22;11552;50.786;4.332;2022-11-18T04:27:49;9.00;99.90
22771;DHT22;11552;50.786;4.332;2022-11-18T04:30:15;9.00;99.90
22771;DHT22;11552;50.786;4.332;2022-11-18T04:32:56;9.00;99.90
22771;DHT22;11552;50.786;4.332;2022-11-18T04:35:39;9.10;99.90
22771;DHT22;11552;50.786;4.332;2022-11-18T04:38:05;9.00;99.90
22771;DHT22;11552;50.786;4.332;2022-11-18T04:48:20;8.90;99.90
22771;DHT22;11552;50.786;4.332;2022-11-18T04:50:45;8.90;99.90
22771;DHT22;11552;50.786;4.332;2022-11-18T04:53:11;8.80;99.90
22771;DHT22;11552;50.786;4.332;2022-11-18T04:55:36;8.70;99.90
22771;DHT22;11552;50.786;4.332;2022-11-18T04:58:02;8.80;99.90
22771;DHT22;11552;50.786;4.332;2022-11-18T05:05:14;8.80;99.90
22771;DHT22;11552;50.786;4.332;2022-11-18T05:07:39;8.70;99.90
22771;DHT22;11552;50.786;4.332;2022-11-18T05:14:15;8.80;99.90
22771;DHT22;11552;50.786;4.332;2022-11-18T05:16:40;8.70;99.90
22771;DHT22;11552;50.786;4.332;2022-11-18T05:19:06;8.70;99.90
22771;DHT22;11552;50.786;4.332;2022-11-18T05:21:31;8.70;99.90
22771;DHT22;11552;50.786;4.332;2022-11-18T05:23:57;8.60;99.90
22771;DHT22;11552;50.786;4.332;2022-11-18T05:29:52;8.60;99.90
22771;DHT22;11552;50.786;4.332;2022-11-18T05:36:40;8.60;99.90
22771;DHT22;11552;50.786;4.332;2022-11-18T05:39:05;8.50;99.90
22771;DHT22;11552;50.786;4.332;2022-11-18T05:41:46;8.50;99.90
22771;DHT22;11552;50.786;4.332;2022-11-18T05:44:30;8.50;99.90
22771;DHT22;11552;50.786;4.332;2022-11-18T05:46:55;8.50;99.90
22771;DHT22;11552;50.786;4.332;2022-11-18T05:49:21;8.50;99.90
22771;DHT22;11552;50.786;4.332;2022-11-18T05:51:47;8.50;99.90
22771;DHT22;11552;50.786;4.332;2022-11-18T05:54:13;8.60;99.90
22771;DHT22;11552;50.786;4.332;2022-11-18T05:56:41;8.70;99.90
22771;DHT22;11552;50.786;4.332;2022-11-18T05:59:09;8.60;99.90
22771;DHT22;11552;50.786;4.332;2022-11-18T06:01:37;8.60;99.90
22771;DHT22;11552;50.786;4.332;2022-11-18T06:06:12;8.60;99.90
22771;DHT22;11552;50.786;4.332;2022-11-18T06:08:39;8.60;99.90
22771;DHT22;11552;50.786;4.332;2022-11-18T06:14:41;8.50;99.90
22771;DHT22;11552;50.786;4.332;2022-11-18T06:19:17;8.50;99.90
22771;DHT22;11552;50.786;4.332;2022-11-18T06:21:43;8.60;99.90
22771;DHT22;11552;50.786;4.332;2022-11-18T06:24:09;8.60;99.90
22771;DHT22;11552;50.786;4.332;2022-11-18T06:29:57;8.60;99.90
22771;DHT22;11552;50.786;4.332;2022-11-18T06:33:29;8.70;99.90
22771;DHT22;11552;50.786;4.332;2022-11-18T06:35:54;8.60;99.90
22771;DHT22;11552;50.786;4.332;2022-11-18T06:40:29;8.70;99.90
22771;DHT22;11552;50.786;4.332;2022-11-18T06:42:55;8.60;99.90
22771;DHT22;11552;50.786;4.332;2022-11-18T06:45:39;8.70;99.90
22771;DHT22;11552;50.786;4.332;2022-11-18T06:48:24;8.80;99.90
22771;DHT22;11552;50.786;4.332;2022-11-18T06:50:50;8.70;99.90
22771;DHT22;11552;50.786;4.332;2022-11-18T06:53:15;8.70;99.90
22771;DHT22;11552;50.786;4.332;2022-11-18T06:55:41;8.70;99.90
22771;DHT22;11552;50.786;4.332;2022-11-18T06:58:06;8.80;99.90
22771;DHT22;11552;50.786;4.332;2022-11-18T07:00:32;8.80;99.90
22771;DHT22;11552;50.786;4.332;2022-11-18T07:02:57;8.80;99.90
22771;DHT22;11552;50.786;4.332;2022-11-18T07:05:23;9.00;99.90
22771;DHT22;11552;50.786;4.332;2022-11-18T07:09:03;9.00;99.90
22771;DHT22;11552;50.786;4.332;2022-11-18T07:11:29;9.20;99.90
22771;DHT22;11552;50.786;4.332;2022-11-18T07:15:03;9.30;99.90
22771;DHT22;11552;50.786;4.332;2022-11-18T07:18:51;9.30;99.90
22771;DHT22;11552;50.786;4.332;2022-11-18T07:21:18;9.20;99.90
22771;DHT22;11552;50.786;4.332;2022-11-18T07:23:44;9.20;99.90
22771;DHT22;11552;50.786;4.332;2022-11-18T07:26:09;9.30;99.90
22771;DHT22;11552;50.786;4.332;2022-11-18T07:28:35;9.40;99.90
22771;DHT22;11552;50.786;4.332;2022-11-18T07:33:29;9.50;99.90
22771;DHT22;11552;50.786;4.332;2022-11-18T07:35:58;9.60;99.90
22771;DHT22;11552;50.786;4.332;2022-11-18T07:40:27;9.70;99.90
22771;DHT22;11552;50.786;4.332;2022-11-18T07:42:53;9.70;99.90
22771;DHT22;11552;50.786;4.332;2022-11-18T07:45:18;9.80;99.90
22771;DHT22;11552;50.786;4.332;2022-11-18T07:48:17;9.90;99.90
22771;DHT22;11552;50.786;4.332;2022-11-18T07:50:42;10.00;99.90
22771;DHT22;11552;50.786;4.332;2022-11-18T07:53:28;9.80;99.90
22771;DHT22;11552;50.786;4.332;2022-11-18T07:55:54;9.80;99.90
22771;DHT22;11552;50.786;4.332;2022-11-18T07:58:19;10.00;99.90
22771;DHT22;11552;50.786;4.332;2022-11-18T08:01:06;10.00;99.90
22771;DHT22;11552;50.786;4.332;2022-11-18T08:03:32;9.80;99.90
22771;DHT22;11552;50.786;4.332;2022-11-18T08:05:58;9.80;99.90
22771;DHT22;11552;50.786;4.332;2022-11-18T08:08:24;9.80;99.90
22771;DHT22;11552;50.786;4.332;2022-11-18T08:10:49;9.90;99.90
22771;DHT22;11552;50.786;4.332;2022-11-18T08:13:15;9.90;99.90
22771;DHT22;11552;50.786;4.332;2022-11-18T08:15:41;9.90;99.90
22771;DHT22;11552;50.786;4.332;2022-11-18T08:18:06;9.90;99.90
22771;DHT22;11552;50.786;4.332;2022-11-18T08:21:33;9.80;99.90
22771;DHT22;11552;50.786;4.332;2022-11-18T08:23:59;9.80;99.90
22771;DHT22;11552;50.786;4.332;2022-11-18T08:26:25;10.00;99.90
22771;DHT22;11552;50.786;4.332;2022-11-18T08:28:51;10.10;99.90
22771;DHT22;11552;50.786;4.332;2022-11-18T08:33:42;10.20;99.90
22771;DHT22;11552;50.786;4.332;2022-11-18T08:36:09;10.10;99.90
22771;DHT22;11552;50.786;4.332;2022-11-18T08:38:34;10.00;99.90
22771;DHT22;11552;50.786;4.332;2022-11-18T08:41:00;10.00;99.90
22771;DHT22;11552;50.786;4.332;2022-11-18T08:45:50;10.10;99.90
22771;DHT22;11552;50.786;4.332;2022-11-18T08:48:16;10.30;99.90
22771;DHT22;11552;50.786;4.332;2022-11-18T08:50:41;10.20;99.90
22771;DHT22;11552;50.786;4.332;2022-11-18T08:53:07;10.20;99.90
22771;DHT22;11552;50.786;4.332;2022-11-18T08:55:32;10.30;99.90
22771;DHT22;11552;50.786;4.332;2022-11-18T08:57:58;10.20;99.90
22771;DHT22;11552;50.786;4.332;2022-11-18T09:00:23;10.20;99.90
22771;DHT22;11552;50.786;4.332;2022-11-18T09:02:49;10.40;99.90
22771;DHT22;11552;50.786;4.332;2022-11-18T09:05:14;10.50;99.90
22771;DHT22;11552;50.786;4.332;2022-11-18T09:07:40;10.50;99.90
22771;DHT22;11552;50.786;4.332;2022-11-18T09:10:05;10.50;99.90
22771;DHT22;11552;50.786;4.332;2022-11-18T09:12:31;10.50;99.90
22771;DHT22;11552;50.786;4.332;2022-11-18T09:14:56;10.60;99.90
22771;DHT22;11552;50.786;4.332;2022-11-18T09:17:22;10.60;99.90
22771;DHT22;11552;50.786;4.332;2022-11-18T09:19:47;10.70;99.90
22771;DHT22;11552;50.786;4.332;2022-11-18T09:22:13;10.70;99.90
22771;DHT22;11552;50.786;4.332;2022-11-18T09:24:39;10.80;99.90
22771;DHT22;11552;50.786;4.332;2022-11-18T09:27:05;10.60;99.90
22771;DHT22;11552;50.786;4.332;2022-11-18T09:30:28;10.60;99.90
22771;DHT22;11552;50.786;4.332;2022-11-18T09:32:54;10.70;99.90
22771;DHT22;11552;50.786;4.332;2022-11-18T09:35:19;10.90;99.90
22771;DHT22;11552;50.786;4.332;2022-11-18T09:37:45;11.00;99.90
22771;DHT22;11552;50.786;4.332;2022-11-18T09:40:15;11.10;99.90
22771;DHT22;11552;50.786;4.332;2022-11-18T09:42:55;11.30;99.90
22771;DHT22;11552;50.786;4.332;2022-11-18T09:45:23;11.50;99.90
22771;DHT22;11552;50.786;4.332;2022-11-18T09:47:51;11.50;99.90
22771;DHT22;11552;50.786;4.332;2022-11-18T09:50:19;11.60;99.90
22771;DHT22;11552;50.786;4.332;2022-11-18T09:55:26;11.60;99.90
22771;DHT22;11552;50.786;4.332;2022-11-18T09:58:54;11.70;99.90
22771;DHT22;11552;50.786;4.332;2022-11-18T10:01:20;11.60;99.90
22771;DHT22;11552;50.786;4.332;2022-11-18T10:03:46;11.70;99.90
22771;DHT22;11552;50.786;4.332;2022-11-18T10:08:51;12.00;99.90
22771;DHT22;11552;50.786;4.332;2022-11-18T10:11:21;11.90;99.90
22771;DHT22;11552;50.786;4.332;2022-11-18T10:16:35;12.00;99.90
22771;DHT22;11552;50.786;4.332;2022-11-18T10:26:41;11.60;99.90
22771;DHT22;11552;50.786;4.332;2022-11-18T10:29:06;11.80;99.90
22771;DHT22;11552;50.786;4.332;2022-11-18T10:31:35;11.80;99.90
22771;DHT22;11552;50.786;4.332;2022-11-18T10:34:01;11.90;99.90
22771;DHT22;11552;50.786;4.332;2022-11-18T10:36:31;12.00;99.90
22771;DHT22;11552;50.786;4.332;2022-11-18T10:39:05;12.10;99.90
22771;DHT22;11552;50.786;4.332;2022-11-18T10:41:36;12.00;99.90
22771;DHT22;11552;50.786;4.332;2022-11-18T10:44:02;12.10;99.90
22771;DHT22;11552;50.786;4.332;2022-11-18T10:46:29;12.20;99.90
22771;DHT22;11552;50.786;4.332;2022-11-18T10:51:33;12.30;99.90
22771;DHT22;11552;50.786;4.332;2022-11-18T10:54:18;12.20;99.90
22771;DHT22;11552;50.786;4.332;2022-11-18T10:59:12;12.00;99.90
22771;DHT22;11552;50.786;4.332;2022-11-18T11:01:40;12.00;99.90
22771;DHT22;11552;50.786;4.332;2022-11-18T11:04:17;11.90;99.90
22771;DHT22;11552;50.786;4.332;2022-11-18T11:06:44;11.70;99.90
22771;DHT22;11552;50.786;4.332;2022-11-18T11:12:01;11.70;99.90
22771;DHT22;11552;50.786;4.332;2022-11-18T11:19:20;11.50;99.90
22771;DHT22;11552;50.786;4.332;2022-11-18T11:21:47;11.50;99.90
22771;DHT22;11552;50.786;4.332;2022-11-18T11:24:13;11.50;99.90
22771;DHT22;11552;50.786;4.332;2022-11-18T11:49:29;12.30;99.90
22771;DHT22;11552;50.786;4.332;2022-11-18T11:52:00;12.50;99.90
22771;DHT22;11552;50.786;4.332;2022-11-18T12:01:33;12.40;99.90
22771;DHT22;11552;50.786;4.332;2022-11-18T12:04:14;12.40;99.90
22771;DHT22;11552;50.786;4.332;2022-11-18T12:06:44;12.60;99.90
22771;DHT22;11552;50.786;4.332;2022-11-18T12:11:43;12.50;99.90
22771;DHT22;11552;50.786;4.332;2022-11-18T12:17:26;12.30;99.90
22771;DHT22;11552;50.786;4.332;2022-11-18T12:19:56;12.40;99.90
22771;DHT22;11552;50.786;4.332;2022-11-18T12:27:56;12.60;99.90
22771;DHT22;11552;50.786;4.332;2022-11-18T12:30:23;12.40;99.90
22771;DHT22;11552;50.786;4.332;2022-11-18T12:32:48;12.30;99.90
22771;DHT22;11552;50.786;4.332;2022-11-18T12:36:37;12.60;99.90
22771;DHT22;11552;50.786;4.332;2022-11-18T12:41:02;12.60;99.90
22771;DHT22;11552;50.786;4.332;2022-11-18T12:47:12;12.60;99.90
22771;DHT22;11552;50.786;4.332;2022-11-18T12:54:53;12.60;99.90
22771;DHT22;11552;50.786;4.332;2022-11-18T12:59:27;12.70;99.90
22771;DHT22;11552;50.786;4.332;2022-11-18T13:02:14;13.00;99.90
22771;DHT22;11552;50.786;4.332;2022-11-18T13:04:41;13.20;99.90
22771;DHT22;11552;50.786;4.332;2022-11-18T13:07:10;13.20;99.90
22771;DHT22;11552;50.786;4.332;2022-11-18T13:09:56;13.30;99.90
22771;DHT22;11552;50.786;4.332;2022-11-18T13:13:01;13.30;99.90
22771;DHT22;11552;50.786;4.332;2022-11-18T13:15:45;13.40;99.90
22771;DHT22;11552;50.786;4.332;2022-11-18T13:18:29;13.20;99.90
22771;DHT22;11552;50.786;4.332;2022-11-18T13:20:56;13.10;99.90
22771;DHT22;11552;50.786;4.332;2022-11-18T13:23:29;13.00;99.90
22771;DHT22;11552;50.786;4.332;2022-11-18T13:26:23;12.80;99.90
22771;DHT22;11552;50.786;4.332;2022-11-18T13:31:34;12.60;99.90
22771;DHT22;11552;50.786;4.332;2022-11-18T13:36:40;12.60;99.90
22771;DHT22;11552;50.786;4.332;2022-11-18T13:39:16;12.50;99.90
22771;DHT22;11552;50.786;4.332;2022-11-18T13:41:42;12.50;99.90
22771;DHT22;11552;50.786;4.332;2022-11-18T13:44:17;12.50;99.90
22771;DHT22;11552;50.786;4.332;2022-11-18T13:46:44;12.50;99.90
22771;DHT22;11552;50.786;4.332;2022-11-18T13:49:15;12.60;99.90
22771;DHT22;11552;50.786;4.332;2022-11-18T13:51:43;12.50;99.90
22771;DHT22;11552;50.786;4.332;2022-11-18T13:54:14;12.50;99.90
22771;DHT22;11552;50.786;4.332;2022-11-18T13:59:01;12.50;99.90
22771;DHT22;11552;50.786;4.332;2022-11-18T14:01:27;12.50;99.90
22771;DHT22;11552;50.786;4.332;2022-11-18T14:05:14;12.30;99.90
22771;DHT22;11552;50.786;4.332;2022-11-18T14:08:21;12.30;99.90
22771;DHT22;11552;50.786;4.332;2022-11-18T14:12:31;12.50;99.90
22771;DHT22;11552;50.786;4.332;2022-11-18T14:17:37;12.50;99.90
22771;DHT22;11552;50.786;4.332;2022-11-18T14:20:06;12.60;99.90
22771;DHT22;11552;50.786;4.332;2022-11-18T14:23:11;12.70;99.90
22771;DHT22;11552;50.786;4.332;2022-11-18T14:28:52;12.80;99.90
22771;DHT22;11552;50.786;4.332;2022-11-18T14:34:02;12.90;99.90
22771;DHT22;11552;50.786;4.332;2022-11-18T14:36:28;13.00;99.90
22771;DHT22;11552;50.786;4.332;2022-11-18T14:38:53;13.10;99.90
22771;DHT22;11552;50.786;4.332;2022-11-18T14:41:20;13.00;99.90
22771;DHT22;11552;50.786;4.332;2022-11-18T14:44:04;12.90;99.90
22771;DHT22;11552;50.786;4.332;2022-11-18T14:46:30;12.80;99.90
22771;DHT22;11552;50.786;4.332;2022-11-18T14:48:56;12.70;99.90
22771;DHT22;11552;50.786;4.332;2022-11-18T14:51:22;12.70;99.90
22771;DHT22;11552;50.786;4.332;2022-11-18T14:53:48;12.70;99.90
22771;DHT22;11552;50.786;4.332;2022-11-18T14:56:14;12.80;99.90
22771;DHT22;11552;50.786;4.332;2022-11-18T14:58:42;12.90;99.90
22771;DHT22;11552;50.786;4.332;2022-11-18T15:01:08;12.80;99.90
22771;DHT22;11552;50.786;4.332;2022-11-18T15:03:34;12.60;99.90
22771;DHT22;11552;50.786;4.332;2022-11-18T15:06:00;12.70;99.90
22771;DHT22;11552;50.786;4.332;2022-11-18T15:08:25;12.70;99.90
22771;DHT22;11552;50.786;4.332;2022-11-18T15:12:19;12.60;99.90
22771;DHT22;11552;50.786;4.332;2022-11-18T15:14:44;12.60;99.90
22771;DHT22;11552;50.786;4.332;2022-11-18T15:17:11;12.50;99.90
22771;DHT22;11552;50.786;4.332;2022-11-18T15:19:36;12.60;99.90
22771;DHT22;11552;50.786;4.332;2022-11-18T15:22:02;12.70;99.90
22771;DHT22;11552;50.786;4.332;2022-11-18T15:24:28;12.60;99.90
22771;DHT22;11552;50.786;4.332;2022-11-18T15:27:27;12.60;99.90
22771;DHT22;11552;50.786;4.332;2022-11-18T15:29:52;12.70;99.90
22771;DHT22;11552;50.786;4.332;2022-11-18T15:32:18;12.60;99.90
22771;DHT22;11552;50.786;4.332;2022-11-18T15:34:43;12.50;99.90
22771;DHT22;11552;50.786;4.332;2022-11-18T15:37:10;12.60;99.90
22771;DHT22;11552;50.786;4.332;2022-11-18T15:39:36;12.50;99.90
22771;DHT22;11552;50.786;4.332;2022-11-18T15:42:58;12.50;99.90
22771;DHT22;11552;50.786;4.332;2022-11-18T15:45:24;12.50;99.90
22771;DHT22;11552;50.786;4.332;2022-11-18T15:47:50;12.40;99.90
22771;DHT22;11552;50.786;4.332;2022-11-18T15:50:16;12.40;99.90
22771;DHT22;11552;50.786;4.332;2022-11-18T15:52:41;12.30;99.90
22771;DHT22;11552;50.786;4.332;2022-11-18T15:55:07;12.20;99.90
22771;DHT22;11552;50.786;4.332;2022-11-18T15:57:33;12.20;99.90
22771;DHT22;11552;50.786;4.332;2022-11-18T15:59:58;12.10;99.90
22771;DHT22;11552;50.786;4.332;2022-11-18T16:02:24;12.20;99.90
22771;DHT22;11552;50.786;4.332;2022-11-18T16:04:49;12.20;99.90
22771;DHT22;11552;50.786;4.332;2022-11-18T16:07:15;12.20;99.90
22771;DHT22;11552;50.786;4.332;2022-11-18T16:09:40;12.30;99.90
22771;DHT22;11552;50.786;4.332;2022-11-18T16:12:24;12.20;99.90
22771;DHT22;11552;50.786;4.332;2022-11-18T16:15:08;12.20;99.90
22771;DHT22;11552;50.786;4.332;2022-11-18T16:18:11;12.20;99.90
22771;DHT22;11552;50.786;4.332;2022-11-18T16:20:37;12.20;99.90
22771;DHT22;11552;50.786;4.332;2022-11-18T16:23:02;12.00;99.90
22771;DHT22;11552;50.786;4.332;2022-11-18T16:25:28;11.90;99.90
22771;DHT22;11552;50.786;4.332;2022-11-18T16:27:54;12.00;99.90
22771;DHT22;11552;50.786;4.332;2022-11-18T16:32:40;12.00;99.90
22771;DHT22;11552;50.786;4.332;2022-11-18T16:35:06;11.90;99.90
22771;DHT22;11552;50.786;4.332;2022-11-18T16:37:32;11.80;99.90
22771;DHT22;11552;50.786;4.332;2022-11-18T16:39:57;11.80;99.90
22771;DHT22;11552;50.786;4.332;2022-11-18T16:42:22;11.80;99.90
22771;DHT22;11552;50.786;4.332;2022-11-18T16:44:48;11.90;99.90
22771;DHT22;11552;50.786;4.332;2022-11-18T16:47:13;11.80;99.90
22771;DHT22;11552;50.786;4.332;2022-11-18T16:49:40;11.90;99.90
22771;DHT22;11552;50.786;4.332;2022-11-18T16:52:05;11.90;99.90
22771;DHT22;11552;50.786;4.332;2022-11-18T16:54:31;11.90;99.90
22771;DHT22;11552;50.786;4.332;2022-11-18T16:56:58;11.80;99.90
22771;DHT22;11552;50.786;4.332;2022-11-18T16:59:24;11.70;99.90
22771;DHT22;11552;50.786;4.332;2022-11-18T17:01:50;11.70;99.90
22771;DHT22;11552;50.786;4.332;2022-11-18T17:04:16;11.70;99.90
22771;DHT22;11552;50.786;4.332;2022-11-18T17:06:42;11.70;99.90
22771;DHT22;11552;50.786;4.332;2022-11-18T17:09:11;11.70;99.90
22771;DHT22;11552;50.786;4.332;2022-11-18T17:11:37;11.70;99.90
22771;DHT22;11552;50.786;4.332;2022-11-18T17:14:02;11.80;99.90
22771;DHT22;11552;50.786;4.332;2022-11-18T17:16:28;11.70;99.90
22771;DHT22;11552;50.786;4.332;2022-11-18T17:18:54;11.80;99.90
22771;DHT22;11552;50.786;4.332;2022-11-18T17:21:20;11.80;99.90
22771;DHT22;11552;50.786;4.332;2022-11-18T17:23:46;11.70;99.90
22771;DHT22;11552;50.786;4.332;2022-11-18T17:26:13;11.50;99.90
22771;DHT22;11552;50.786;4.332;2022-11-18T17:28:39;11.70;99.90
22771;DHT22;11552;50.786;4.332;2022-11-18T17:31:08;11.70;99.90
22771;DHT22;11552;50.786;4.332;2022-11-18T17:33:34;11.70;99.90
22771;DHT22;11552;50.786;4.332;2022-11-18T17:36:01;11.70;99.90
22771;DHT22;11552;50.786;4.332;2022-11-18T17:38:27;11.70;99.90
22771;DHT22;11552;50.786;4.332;2022-11-18T17:40:53;11.80;99.90
22771;DHT22;11552;50.786;4.332;2022-11-18T17:45:24;11.70;99.90
22771;DHT22;11552;50.786;4.332;2022-11-18T17:47:50;11.60;99.90
22771;DHT22;11552;50.786;4.332;2022-11-18T17:50:15;11.40;99.90
22771;DHT22;11552;50.786;4.332;2022-11-18T17:52:41;11.40;99.90
22771;DHT22;11552;50.786;4.332;2022-11-18T17:55:07;11.40;99.90
22771;DHT22;11552;50.786;4.332;2022-11-18T17:57:32;11.20;99.90
22771;DHT22;11552;50.786;4.332;2022-11-18T17:59:58;11.10;99.90
22771;DHT22;11552;50.786;4.332;2022-11-18T18:02:23;11.10;99.90
22771;DHT22;11552;50.786;4.332;2022-11-18T18:04:49;11.00;99.90
22771;DHT22;11552;50.786;4.332;2022-11-18T18:07:14;11.10;99.90
22771;DHT22;11552;50.786;4.332;2022-11-18T18:09:40;11.10;99.90
22771;DHT22;11552;50.786;4.332;2022-11-18T18:12:05;10.90;99.90
22771;DHT22;11552;50.786;4.332;2022-11-18T18:14:51;10.80;99.90
22771;DHT22;11552;50.786;4.332;2022-11-18T18:17:49;10.80;99.90
22771;DHT22;11552;50.786;4.332;2022-11-18T18:20:14;10.90;99.90
22771;DHT22;11552;50.786;4.332;2022-11-18T18:23:35;11.00;99.90
22771;DHT22;11552;50.786;4.332;2022-11-18T18:26:01;11.10;99.90
22771;DHT22;11552;50.786;4.332;2022-11-18T18:28:27;11.10;99.90
22771;DHT22;11552;50.786;4.332;2022-11-18T18:30:56;11.00;99.90
22771;DHT22;11552;50.786;4.332;2022-11-18T18:33:41;11.00;99.90
22771;DHT22;11552;50.786;4.332;2022-11-18T18:36:08;11.20;99.90
22771;DHT22;11552;50.786;4.332;2022-11-18T18:38:34;11.20;99.90
22771;DHT22;11552;50.786;4.332;2022-11-18T18:42:32;11.20;99.90
22771;DHT22;11552;50.786;4.332;2022-11-18T18:44:57;11.20;99.90
22771;DHT22;11552;50.786;4.332;2022-11-18T18:47:41;11.10;99.90
22771;DHT22;11552;50.786;4.332;2022-11-18T18:50:07;11.10;99.90
22771;DHT22;11552;50.786;4.332;2022-11-18T18:52:32;11.10;99.90
22771;DHT22;11552;50.786;4.332;2022-11-18T18:54:58;11.30;99.90
22771;DHT22;11552;50.786;4.332;2022-11-18T18:57:24;11.20;99.90
22771;DHT22;11552;50.786;4.332;2022-11-18T18:59:50;11.30;99.90
22771;DHT22;11552;50.786;4.332;2022-11-18T19:02:15;11.30;99.90
22771;DHT22;11552;50.786;4.332;2022-11-18T19:04:41;11.10;99.90
22771;DHT22;11552;50.786;4.332;2022-11-18T19:07:09;11.20;99.90
22771;DHT22;11552;50.786;4.332;2022-11-18T19:09:35;11.40;99.90
22771;DHT22;11552;50.786;4.332;2022-11-18T19:13:52;11.20;99.90
22771;DHT22;11552;50.786;4.332;2022-11-18T19:16:18;11.30;99.90
22771;DHT22;11552;50.786;4.332;2022-11-18T19:18:43;11.30;99.90
22771;DHT22;11552;50.786;4.332;2022-11-18T19:21:09;11.30;99.90
22771;DHT22;11552;50.786;4.332;2022-11-18T19:23:34;11.30;99.90
22771;DHT22;11552;50.786;4.332;2022-11-18T19:26:00;11.20;99.90
22771;DHT22;11552;50.786;4.332;2022-11-18T19:28:25;11.30;99.90